createdAt,value
2019-02-21T00:02:31.049Z,100966.09
2019-02-21T00:05:32.988Z,100965.08
2019-02-21T00:08:34.931Z,100960.44
2019-02-21T00:11:37.346Z,100966.50
2019-02-21T00:14:39.424Z,100963.30
2019-02-21T00:17:41.426Z,100961.68
2019-02-21T00:20:43.505Z,100960.09
2019-02-21T00:23:45.502Z,100968.42
2019-02-21T00:26:47.481Z,100970.69
2019-02-21T00:29:49.413Z,100972.20
2019-02-21T00:32:51.321Z,100974.84
2019-02-21T00:35:53.400Z,100971.66
2019-02-21T00:38:55.400Z,100968.92
2019-02-21T00:41:57.371Z,100973.34
2019-02-21T00:44:59.319Z,100971.97
2019-02-21T00:48:01.436Z,100974.35
2019-02-21T00:51:03.358Z,100976.83
2019-02-21T00:54:05.308Z,100975.53
2019-02-21T00:57:07.305Z,100980.78
2019-02-21T01:00:11.831Z,100979.92
2019-02-21T01:03:13.779Z,100978.05
2019-02-21T01:06:15.775Z,100974.10
2019-02-21T01:09:17.852Z,100976.61
2019-02-21T01:12:19.924Z,100976.83
2019-02-21T01:15:21.840Z,100979.56
2019-02-21T01:18:23.820Z,100977.91
2019-02-21T01:21:25.692Z,100973.81
2019-02-21T01:24:27.663Z,100972.52
2019-02-21T01:27:29.629Z,100974.16
2019-02-21T01:30:31.536Z,100973.63
2019-02-21T01:33:33.507Z,100967.47
2019-02-21T01:36:35.527Z,100979.77
2019-02-21T01:39:37.498Z,100975.66
2019-02-21T01:42:39.450Z,100975.25
2019-02-21T01:45:41.555Z,100977.91
2019-02-21T01:48:43.452Z,100975.47
2019-02-21T01:51:45.345Z,100978.95
2019-02-21T01:54:47.215Z,100979.14
2019-02-21T01:57:49.958Z,100982.34
2019-02-21T02:00:51.941Z,100981.13
2019-02-21T02:03:53.898Z,100978.88
2019-02-21T02:06:55.801Z,100976.46
2019-02-21T02:09:57.822Z,100976.92
2019-02-21T02:12:59.707Z,100982.39
2019-02-21T02:16:01.611Z,100981.03
2019-02-21T02:19:03.515Z,100986.42
2019-02-21T02:22:05.402Z,100980.70
2019-02-21T02:25:07.347Z,100975.56
2019-02-21T02:28:09.410Z,100980.42
2019-02-21T02:31:22.100Z,100973.52
2019-02-21T02:34:15.992Z,100972.91
2019-02-21T02:37:18.002Z,100965.55
2019-02-21T02:40:19.875Z,100968.45
2019-02-21T02:43:22.315Z,100968.17
2019-02-21T02:46:24.230Z,100974.67
2019-02-21T02:49:26.181Z,100973.23
2019-02-21T02:52:28.087Z,100970.76
2019-02-21T02:55:30.021Z,100972.13
2019-02-21T02:58:32.029Z,100976.83
2019-02-21T03:01:35.190Z,100978.55
2019-02-21T03:04:37.581Z,100968.17
2019-02-21T03:07:39.505Z,100965.91
2019-02-21T03:10:41.404Z,100971.37
2019-02-21T03:13:43.303Z,100968.24
2019-02-21T03:16:45.258Z,100969.03
2019-02-21T03:19:47.218Z,100959.69
2019-02-21T03:22:49.551Z,100960.91
2019-02-21T03:25:52.270Z,100967.09
2019-02-21T03:28:54.245Z,100969.58
2019-02-21T03:31:56.510Z,100963.50
2019-02-21T03:34:58.650Z,100959.12
2019-02-21T03:38:00.807Z,100960.48
2019-02-21T03:41:02.873Z,100958.22
2019-02-21T03:44:04.874Z,100961.12
2019-02-21T03:47:06.787Z,100964.00
2019-02-21T03:50:09.957Z,100970.22
2019-02-21T03:53:11.836Z,100965.76
2019-02-21T03:56:13.785Z,100961.30
2019-02-21T03:59:16.131Z,100967.66
2019-02-21T04:02:18.037Z,100968.41
2019-02-21T04:05:20.061Z,100965.10
2019-02-21T04:08:22.165Z,100963.66
2019-02-21T04:11:24.048Z,100960.40
2019-02-21T04:14:26.126Z,100964.12
2019-02-21T04:17:28.021Z,100965.42
2019-02-21T04:20:29.942Z,100963.73
2019-02-21T04:23:31.815Z,100960.42
2019-02-21T04:26:33.716Z,100955.47
2019-02-21T04:29:35.653Z,100964.36
2019-02-21T04:32:37.596Z,100959.95
2019-02-21T04:35:39.542Z,100951.47
2019-02-21T04:38:41.582Z,100950.11
2019-02-21T04:41:43.456Z,100953.47
2019-02-21T04:44:45.354Z,100951.78
2019-02-21T04:47:47.243Z,100955.13
2019-02-21T04:50:49.208Z,100949.20
2019-02-21T04:53:51.107Z,100949.03
2019-02-21T04:56:53.096Z,100942.20
2019-02-21T04:59:56.186Z,100940.70
2019-02-21T05:02:58.126Z,100939.34
2019-02-21T05:06:00.026Z,100929.93
2019-02-21T05:09:01.965Z,100932.08
2019-02-21T05:12:05.675Z,100937.22
2019-02-21T05:15:08.998Z,100926.10
2019-02-21T05:18:10.947Z,100925.56
2019-02-21T05:21:12.823Z,100931.70
2019-02-21T05:24:14.813Z,100930.43
2019-02-21T05:27:18.547Z,100929.66
2019-02-21T05:30:22.377Z,100933.38
2019-02-21T05:33:41.517Z,100934.27
2019-02-21T05:36:51.071Z,100939.03
2019-02-21T05:40:03.129Z,100935.70
2019-02-21T05:43:06.724Z,100940.69
2019-02-21T05:46:13.472Z,100945.69
2019-02-21T05:49:20.231Z,100945.53
2019-02-21T05:52:26.816Z,100952.05
2019-02-21T05:55:30.486Z,100955.84
2019-02-21T05:58:37.018Z,100957.95
2019-02-21T06:01:40.831Z,100958.57
2019-02-21T06:04:47.464Z,100955.84
2019-02-21T06:08:05.985Z,100953.50
2019-02-21T06:11:18.030Z,100960.23
2019-02-21T06:14:24.012Z,100969.94
2019-02-21T06:17:30.718Z,100967.13
2019-02-21T06:20:40.927Z,100966.22
2019-02-21T06:23:49.226Z,100966.01
2019-02-21T06:26:53.173Z,100968.00
2019-02-21T06:30:00.348Z,100970.42
2019-02-21T06:33:05.402Z,100975.20
2019-02-21T06:36:06.595Z,100972.09
2019-02-21T06:39:08.513Z,100978.30
2019-02-21T06:42:10.564Z,100972.75
2019-02-21T06:45:12.490Z,100966.40
2019-02-21T06:48:14.433Z,100972.22
2019-02-21T06:51:16.347Z,100972.05
2019-02-21T06:54:18.529Z,100967.05
2019-02-21T06:57:20.453Z,100975.75
2019-02-21T07:00:22.461Z,100970.08
2019-02-21T07:03:25.971Z,100962.41
2019-02-21T07:06:31.989Z,100973.70
2019-02-21T07:09:31.856Z,100965.19
2019-02-21T07:12:33.831Z,100961.60
2019-02-21T07:15:35.779Z,100969.65
2019-02-21T07:18:37.757Z,100958.50
2019-02-21T07:21:39.650Z,100958.92
2019-02-21T07:24:42.738Z,100966.52
2019-02-21T07:27:44.628Z,100962.27
2019-02-21T07:30:47.175Z,100958.01
2019-02-21T07:33:49.195Z,100963.34
2019-02-21T07:36:51.123Z,100973.33
2019-02-21T07:39:53.141Z,100974.33
2019-02-21T07:42:55.299Z,100974.24
2019-02-21T07:45:57.226Z,100978.13
2019-02-21T07:49:00.299Z,100967.50
2019-02-21T07:52:02.211Z,100965.56
2019-02-21T07:55:06.815Z,100977.31
2019-02-21T07:58:08.734Z,100972.20
2019-02-21T08:01:10.694Z,100969.98
2019-02-21T08:04:14.420Z,100972.58
2019-02-21T08:07:16.359Z,100979.15
2019-02-21T08:10:21.048Z,100980.67
2019-02-21T08:13:22.198Z,100971.61
2019-02-21T08:16:24.165Z,100979.72
2019-02-21T08:19:26.051Z,100978.77
2019-02-21T08:22:28.005Z,100980.86
2019-02-21T08:25:29.993Z,100977.29
2019-02-21T08:28:31.859Z,100978.70
2019-02-21T08:31:34.883Z,100976.39
2019-02-21T08:34:38.694Z,100970.38
2019-02-21T08:37:40.650Z,100978.18
2019-02-21T08:40:42.564Z,100976.73
2019-02-21T08:43:44.609Z,100980.59
2019-02-21T08:46:46.537Z,100977.36
2019-02-21T08:49:48.503Z,100979.66
2019-02-21T08:52:50.445Z,100980.76
2019-02-21T08:55:52.419Z,100974.56
2019-02-21T08:58:54.418Z,100978.17
2019-02-21T09:01:56.484Z,100970.50
2019-02-21T09:04:59.038Z,100966.20
2019-02-21T09:08:01.022Z,100975.33
2019-02-21T09:11:04.043Z,100972.36
2019-02-21T09:14:06.275Z,100962.35
2019-02-21T09:17:08.262Z,100968.25
2019-02-21T09:20:10.765Z,100965.19
2019-02-21T09:23:15.659Z,100961.51
2019-02-21T09:26:16.707Z,100957.53
2019-02-21T09:29:18.603Z,100961.98
2019-02-21T09:32:20.499Z,100955.66
2019-02-21T09:35:22.592Z,100956.53
2019-02-21T09:38:24.491Z,100957.08
2019-02-21T09:41:28.554Z,100956.59
2019-02-21T09:44:30.394Z,100954.95
2019-02-21T09:47:32.303Z,100953.87
2019-02-21T09:50:34.288Z,100960.19
2019-02-21T09:53:36.235Z,100959.69
2019-02-21T09:56:38.196Z,100958.83
2019-02-21T09:59:40.075Z,100957.98
2019-02-21T10:02:42.218Z,100958.82
2019-02-21T10:05:44.438Z,100956.34
2019-02-21T10:08:46.401Z,100957.41
2019-02-21T10:11:48.327Z,100956.60
2019-02-21T10:14:50.282Z,100947.17
2019-02-21T10:17:52.226Z,100948.80
2019-02-21T10:20:54.192Z,100958.48
2019-02-21T10:23:56.876Z,100953.78
2019-02-21T10:26:59.292Z,100952.98
2019-02-21T10:30:01.157Z,100943.03
2019-02-21T10:33:03.113Z,100940.02
2019-02-21T10:36:05.101Z,100947.41
2019-02-21T10:39:07.031Z,100947.38
2019-02-21T10:42:08.965Z,100941.00
2019-02-21T10:45:14.396Z,100936.80
2019-02-21T10:48:16.311Z,100934.20
2019-02-21T10:51:18.289Z,100932.97
2019-02-21T10:54:20.197Z,100933.09
2019-02-21T10:57:22.297Z,100934.12
2019-02-21T11:00:26.722Z,100928.09
2019-02-21T11:03:28.734Z,100918.75
2019-02-21T11:06:31.202Z,100911.13
2019-02-21T11:09:33.167Z,100901.93
2019-02-21T11:12:35.083Z,100896.00
2019-02-21T11:15:37.106Z,100902.11
2019-02-21T11:18:39.059Z,100898.10
2019-02-21T11:21:40.994Z,100898.13
2019-02-21T11:24:43.036Z,100894.30
2019-02-21T11:27:45.006Z,100894.33
2019-02-21T11:30:46.995Z,100887.75
2019-02-21T11:33:48.840Z,100886.68
2019-02-21T11:36:50.851Z,100888.33
2019-02-21T11:39:52.859Z,100884.18
2019-02-21T11:42:54.844Z,100881.14
2019-02-21T11:45:57.514Z,100880.87
2019-02-21T11:48:59.662Z,100881.98
2019-02-21T11:52:09.813Z,100872.30
2019-02-21T11:55:08.639Z,100871.17
2019-02-21T11:58:11.820Z,100871.51
2019-02-21T12:01:13.815Z,100863.53
2019-02-21T12:04:15.761Z,100866.55
2019-02-21T12:07:17.934Z,100861.59
2019-02-21T12:10:20.034Z,100863.77
2019-02-21T12:13:22.009Z,100856.03
2019-02-21T12:16:23.951Z,100853.27
2019-02-21T12:19:25.957Z,100853.28
2019-02-21T12:22:27.897Z,100854.97
2019-02-21T12:25:29.853Z,100854.15
2019-02-21T12:28:35.233Z,100849.73
2019-02-21T12:31:37.274Z,100851.14
2019-02-21T12:34:39.343Z,100845.34
2019-02-21T12:37:41.305Z,100851.41
2019-02-21T12:40:43.231Z,100846.16
2019-02-21T12:43:45.198Z,100842.00
2019-02-21T12:46:47.353Z,100838.96
2019-02-21T12:49:49.256Z,100843.07
2019-02-21T12:52:51.229Z,100834.50
2019-02-21T12:55:53.161Z,100832.55
2019-02-21T12:58:55.154Z,100838.02
2019-02-21T13:01:57.061Z,100841.19
2019-02-21T13:04:59.038Z,100843.25
2019-02-21T13:08:01.043Z,100838.73
2019-02-21T13:11:03.068Z,100830.66
2019-02-21T13:14:04.989Z,100842.48
2019-02-21T13:17:07.571Z,100844.88
2019-02-21T13:20:12.185Z,100837.39
2019-02-21T13:23:14.358Z,100844.95
2019-02-21T13:26:16.693Z,100834.94
2019-02-21T13:29:18.700Z,100841.75
2019-02-21T13:32:20.578Z,100848.02
2019-02-21T13:35:22.484Z,100845.43
2019-02-21T13:38:24.515Z,100834.36
2019-02-21T13:41:26.442Z,100840.55
2019-02-21T13:44:28.361Z,100840.16
2019-02-21T13:47:30.543Z,100839.27
2019-02-21T13:50:32.543Z,100835.42
2019-02-21T13:53:34.459Z,100829.28
2019-02-21T13:56:36.484Z,100823.52
2019-02-21T13:59:38.342Z,100830.63
2019-02-21T14:02:40.247Z,100832.27
2019-02-21T14:05:42.179Z,100832.00
2019-02-21T14:08:44.842Z,100835.25
2019-02-21T14:11:47.905Z,100836.87
2019-02-21T14:14:49.993Z,100834.61
2019-02-21T14:17:51.899Z,100830.34
2019-02-21T14:20:53.841Z,100839.05
2019-02-21T14:23:55.773Z,100832.25
2019-02-21T14:26:57.711Z,100845.05
2019-02-21T14:29:59.719Z,100840.27
2019-02-21T14:33:01.660Z,100842.66
2019-02-21T14:36:15.208Z,100841.63
2019-02-21T14:39:10.628Z,100837.25
2019-02-21T14:42:13.033Z,100832.64
2019-02-21T14:45:20.498Z,100847.47
2019-02-21T14:48:22.568Z,100842.48
2019-02-21T14:51:24.498Z,100843.17
2019-02-21T14:54:26.453Z,100839.65
2019-02-21T14:57:28.439Z,100843.31
2019-02-21T15:00:30.407Z,100839.57
2019-02-21T15:03:32.306Z,100837.97
2019-02-21T15:06:34.550Z,100835.01
2019-02-21T15:09:36.567Z,100828.79
2019-02-21T15:12:38.672Z,100829.20
2019-02-21T15:15:40.792Z,100831.98
2019-02-21T15:18:42.795Z,100844.81
2019-02-21T15:21:44.797Z,100832.77
2019-02-21T15:24:49.351Z,100832.50
2019-02-21T15:27:51.224Z,100833.64
2019-02-21T15:30:54.264Z,100835.60
2019-02-21T15:33:56.259Z,100841.64
2019-02-21T15:36:58.380Z,100836.10
2019-02-21T15:40:01.115Z,100832.48
2019-02-21T15:43:05.301Z,100824.55
2019-02-21T15:46:07.564Z,100818.57
2019-02-21T15:49:09.729Z,100822.09
2019-02-21T15:52:21.777Z,100817.98
2019-02-21T15:55:17.553Z,100808.30
2019-02-21T15:58:22.043Z,100809.89
2019-02-21T16:01:24.085Z,100812.85
2019-02-21T16:04:26.220Z,100809.43
2019-02-21T16:07:28.699Z,100803.95
2019-02-21T16:10:30.785Z,100808.77
2019-02-21T16:13:32.970Z,100815.31
2019-02-21T16:16:35.512Z,100823.98
2019-02-21T16:19:37.510Z,100824.27
2019-02-21T16:22:39.641Z,100825.08
2019-02-21T16:25:41.528Z,100826.98
2019-02-21T16:28:46.189Z,100822.57
2019-02-21T16:31:50.477Z,100820.33
2019-02-21T16:34:54.407Z,100816.77
2019-02-21T16:37:56.397Z,100825.70
2019-02-21T16:41:03.028Z,100813.20
2019-02-21T16:44:07.092Z,100816.77
2019-02-21T16:47:09.497Z,100810.36
2019-02-21T16:50:13.855Z,100815.11
2019-02-21T16:53:15.778Z,100811.41
2019-02-21T16:56:20.077Z,100806.70
2019-02-21T16:59:25.471Z,100800.90
2019-02-21T17:02:27.469Z,100805.50
2019-02-21T17:05:29.498Z,100800.47
2019-02-21T17:08:31.938Z,100803.77
2019-02-21T17:11:35.593Z,100800.20
2019-02-21T17:14:37.551Z,100803.98
2019-02-21T17:17:39.594Z,100799.87
2019-02-21T17:20:41.576Z,100808.58
2019-02-21T17:23:43.612Z,100806.92
2019-02-21T17:26:47.833Z,100801.73
2019-02-21T17:29:50.931Z,100801.14
2019-02-21T17:32:52.964Z,100796.54
2019-02-21T17:35:56.757Z,100779.45
2019-02-21T17:38:59.110Z,100798.02
2019-02-21T17:42:02.507Z,100791.17
2019-02-21T17:45:05.969Z,100797.23
2019-02-21T17:48:07.957Z,100795.33
2019-02-21T17:51:14.258Z,100792.82
2019-02-21T17:54:17.861Z,100789.52
2019-02-21T17:57:21.066Z,100794.95
2019-02-21T18:00:28.405Z,100786.78
2019-02-21T18:03:33.916Z,100786.78
2019-02-21T18:06:36.193Z,100775.57
2019-02-21T18:09:38.521Z,100771.91
2019-02-21T18:12:43.919Z,100768.19
2019-02-21T18:15:46.888Z,100767.85
2019-02-21T18:18:48.807Z,100759.80
2019-02-21T18:21:57.901Z,100758.94
2019-02-21T18:25:01.333Z,100753.15
2019-02-21T18:28:03.753Z,100753.46
2019-02-21T18:31:05.658Z,100744.94
2019-02-21T18:34:07.563Z,100747.30
2019-02-21T18:37:10.853Z,100745.27
2019-02-21T18:40:17.785Z,100746.03
2019-02-21T18:43:21.719Z,100747.51
2019-02-21T18:46:23.731Z,100751.89
2019-02-21T18:49:25.716Z,100757.47
2019-02-21T18:52:28.518Z,100748.71
2019-02-21T18:55:30.984Z,100748.48
2019-02-21T18:58:33.325Z,100740.05
2019-02-21T19:01:35.404Z,100746.73
2019-02-21T19:04:37.506Z,100746.70
2019-02-21T19:07:39.495Z,100740.23
2019-02-21T19:10:41.504Z,100727.19
2019-02-21T19:13:46.932Z,100726.95
2019-02-21T19:16:51.080Z,100729.73
2019-02-21T19:19:55.542Z,100735.58
2019-02-21T19:22:58.511Z,100730.72
2019-02-21T19:26:00.474Z,100729.05
2019-02-21T19:29:03.642Z,100723.38
2019-02-21T19:32:05.586Z,100728.27
2019-02-21T19:35:09.048Z,100724.94
2019-02-21T19:38:12.808Z,100720.33
2019-02-21T19:41:15.410Z,100718.41
2019-02-21T19:44:18.447Z,100716.03
2019-02-21T19:47:23.753Z,100712.79
2019-02-21T19:50:26.078Z,100712.01
2019-02-21T19:53:28.384Z,100710.64
2019-02-21T19:56:31.732Z,100707.90
2019-02-21T19:59:35.788Z,100705.44
2019-02-21T20:02:40.137Z,100703.75
2019-02-21T20:05:42.153Z,100707.00
2019-02-21T20:08:45.499Z,100704.57
2019-02-21T20:11:50.660Z,100707.36
2019-02-21T20:14:54.320Z,100700.55
2019-02-21T20:17:59.305Z,100706.02
2019-02-21T20:21:01.276Z,100711.78
2019-02-21T20:24:09.091Z,100708.54
2019-02-21T20:27:13.628Z,100711.55
2019-02-21T20:30:17.082Z,100713.79
2019-02-21T20:33:20.335Z,100697.11
2019-02-21T20:36:22.346Z,100700.40
2019-02-21T20:39:24.706Z,100698.72
2019-02-21T20:42:26.651Z,100699.31
2019-02-21T20:45:28.667Z,100702.36
2019-02-21T20:48:36.560Z,100694.61
2019-02-21T20:51:38.475Z,100691.88
2019-02-21T20:54:43.717Z,100686.34
2019-02-21T20:57:45.746Z,100687.91
2019-02-21T21:00:47.716Z,100685.53
2019-02-21T21:03:50.761Z,100688.31
2019-02-21T21:06:53.848Z,100687.25
2019-02-21T21:09:56.224Z,100680.91
2019-02-21T21:13:02.430Z,100677.04
2019-02-21T21:16:06.421Z,100676.25
2019-02-21T21:19:09.833Z,100674.06
2019-02-21T21:22:11.781Z,100674.53
2019-02-21T21:25:17.436Z,100676.17
2019-02-21T21:28:19.402Z,100675.55
2019-02-21T21:31:21.310Z,100666.77
2019-02-21T21:34:25.111Z,100677.97
2019-02-21T21:37:27.022Z,100675.19
2019-02-21T21:40:28.951Z,100675.73
2019-02-21T21:43:30.844Z,100674.64
2019-02-21T21:46:32.858Z,100665.64
2019-02-21T21:49:34.922Z,100672.17
2019-02-21T21:52:36.843Z,100671.63
2019-02-21T21:55:38.790Z,100665.60
2019-02-21T21:58:40.732Z,100668.34
2019-02-21T22:01:42.703Z,100666.69
2019-02-21T22:04:44.619Z,100675.45
2019-02-21T22:07:49.081Z,100673.58
2019-02-21T22:10:50.419Z,100666.97
2019-02-21T22:13:52.670Z,100659.88
2019-02-21T22:16:54.775Z,100668.38
2019-02-21T22:19:56.795Z,100670.57
2019-02-21T22:22:58.784Z,100667.02
2019-02-21T22:26:00.889Z,100667.02
2019-02-21T22:29:02.953Z,100663.69
2019-02-21T22:32:04.912Z,100666.97
2019-02-21T22:35:07.272Z,100667.02
2019-02-21T22:38:09.306Z,100672.25
2019-02-21T22:41:11.315Z,100664.55
2019-02-21T22:44:13.353Z,100663.48
2019-02-21T22:47:15.455Z,100671.98
2019-02-21T22:50:18.486Z,100672.30
2019-02-21T22:53:20.433Z,100675.85
2019-02-21T22:56:22.408Z,100670.92
2019-02-21T22:59:24.443Z,100667.09
2019-02-21T23:02:27.742Z,100659.46
2019-02-21T23:05:50.239Z,100660.02
2019-02-21T23:08:53.554Z,100658.37
2019-02-21T23:11:55.500Z,100653.47
2019-02-21T23:14:57.585Z,100648.23
2019-02-21T23:18:00.181Z,100643.30
2019-02-21T23:21:02.327Z,100643.34
2019-02-21T23:24:04.586Z,100644.95
2019-02-21T23:27:06.595Z,100645.26
2019-02-21T23:30:09.359Z,100640.09
2019-02-21T23:33:11.412Z,100635.44
2019-02-21T23:36:13.450Z,100639.27
2019-02-21T23:39:15.449Z,100646.67
2019-02-21T23:42:18.217Z,100638.18
2019-02-21T23:45:20.534Z,100646.20
2019-02-21T23:48:22.546Z,100649.21
2019-02-21T23:51:24.584Z,100653.59
2019-02-21T23:54:26.587Z,100648.98
2019-02-21T23:57:28.638Z,100650.15
